« ### RJNT log 201711 ### | トップページ | 観天 龍ヶ崎飛行場 2017/10/31 tue »

2017/12/02

去来2 成田国際空港 2017/10/30 mon

その1からつづき

RJAA 300600Z 31021G36KT 9999 FEW030 16/M01 Q1009 WS R34L WS R34R TEMPO 32034G45KT

20171030_rjaa_200ja211a_2

ANA926 ZYTX-RJAA JA211A A320-271N

20171030_rjaa_201n807aa_2

AAL153 KORD-RJAA N807AA B787-8

20171030_rjaa_202ja86an_2

ANA2154 RJCC-RJAA JA86AN B737-881

20171030_rjaa_203ja67an_2

ANA2178 RJOO-RJAA JA67AN B737-881

20171030_rjaa_204ja872a_2

ANA210 EDDL-RJAA JA872A B787-9

20171030_rjaa_205n302tr_2

RKS32 RJTT-RJAA N302TR G-VI(G650ER)

20171030_rjaa_206ja604a_2

ANA2158 ROAH-RJAA JA604A B767-381

20171030_rjaa_207ja15jj_2

JJP207 RJAA-RJBB JA15JJ A320-232

20171030_rjaa_208ja613j_2

JAL785 PHNL-RJAA JA613J B767-346ER

20171030_rjaa_209ja731j_2

JAL9 KORD-RJAA JA731J B777-346ER

20171030_rjaa_210bkpj_2

CPA520 VHHH-RJAA B-KPJ B777-367ER

20171030_rjaa_211ja786a_2

ANA9 KJFK-RJAA JA786A B777-381ER

20171030_rjaa_212ja13kz_2

NCA192 RJAA-PANC JA13KZ B747-8KZF

20171030_rjaa_213hl8050_2

JJA1153 RJAA-RKPK HL8050 B737-8AS

20171030_rjaa_214ja777a_2

ANA11 KORD-RJAA JA777A B777-381ER

20171030_rjaa_215b1812_2

CSE521 ZSPD-RJAA B-1812 A321-231

20171030_rjaa_216ja781a_2

ANA7 KSFO-RJAA JA781A B777-381ER

20171030_rjaa_217ja706j_2

JAL793 PHNL-RJAA JA706J B777-246ER

20171030_rjaa_218n454pa_2

20171030_rjaa_219n454pa_2

PAC975 VHHH-RJAA N454PA B747-46NF

20171030_rjaa_220ja806a_2

ANA9414 ????-RJAA JA806A B787-8

20171030_rjaa_221ja804a_2

ANA816 WMKK-RJAA JA804A B787-8

20171030_rjaa_222ja832j_2

JAL750 VVTS-RJAA JA832J B787-8

20171030_rjaa_223ja826j_2

JAL736 VHHH-RJAA JA826J B787-8

20171030_rjaa_224n859fd_2

FDX5015 RJAA-ZSPD N859FD B777-FS2

RJAA 300630Z 31020G30KT 9999 FEW030 15/M01 Q1010 WS R34L NOSIG

20171030_rjaa_225n35953_2

UAL32 KLAX-RJAA N35953 B787-9

20171030_rjaa_226n783an_2

AAL169 KLAX-RJAA N783AN B777-223ER

20171030_rjaa_227ja783a_2

ANA173 KIAH-RJAA JA783A B777-381ER

20171030_rjaa_228n37298_2

UAL196 PGUM-RJAA N37298 B737-824

20171030_rjaa_229ja734j_2

JAL3 KJFK-RJAA JA734J B777-346ER

20171030_rjaa_230ja874a_2

ANA836 WIII-RJAA JA874A B787-9

20171030_rjaa_231n859nw_2

DAL296 ZSPD-RJAA N859NW A330-223

20171030_rjaa_232n859nw_2

ちょっと進入が不安定かなぁぁ と、思っていると G/A

20171030_rjaa_233n859nw_2

レフトターンして再アプローチへ

20171030_rjaa_234ja10jj_2

JJP404 RJOM-RJAA JA10JJ A320-232

20171030_rjaa_235ja71an_2

ANA340 RJGG-RJAA JA71AN B737-881

20171030_rjaa_236ja840j_2

JAL11 KDFW -RJAA JA840J B787-8

20171030_rjaa_237ja304j_2

JAL874 ZSPD-RJAA JA304J B737-846

20171030_rjaa_238ja11jj_2

JJP106 RJCC-RJAA JA11JJ A320-232

20171030_rjaa_239ja732a_2

ANA175 KLAX-RJAA JA732A B777-381ER

20171030_rjaa_240b5918_2

CCA930 RJAA-ZSPD B-5918 A330-243

20171030_rjaa_241ja305j_2

JAL860 ZBAA-RJAA JA305J B737-846

20171030_rjaa_242ja08rj_2

IBX14 RJOA-RJAA JA08RJ CRJ-702ER

20171030_rjaa_243n78001_2

UAL7 KIAH-RJAA N78001 B777-224ER

20171030_rjaa_244ja321j_2

JAL958 RKPK-RJAA JA321J B737-846

20171030_rjaa_245n859nw_2

DAL296 ZSPD-RJAA N859NW A330-223 無事着陸

20171030_rjaa_246ja843j

JAL720 WIII-RJAA JA843J B787-8

RJAA 300700Z 31018G29KT 9999 FEW030 15/M01 Q1011 WS R34L WS R34R NOSIG
R

20171030_rjaa_247n704dk

DAL295 KATL-RJAA N704DK B777-232LR

20171030_rjaa_248ja834j

JAL708 VTBS-RJAA JA834J B787-8

20171030_rjaa_249x9vswy

SIA11 RJAA-WSSS 9V-SWY B777-312ER

20171030_rjaa_250hl7720

KAL2 PHNL-RJAA HL7720 A330-323

20171030_rjaa_251blee

HKE763 VHHH-RJAA B-LEE A321-231

20171030_rjaa_252n1611x

DAL69 KPDX-RJAA N1611B B767-332ER

20171030_rjaa_253ja342j

JAL3006 RJOO-RJAA JA342J B737-846

20171030_rjaa_254ja814p

APJ151 RJBB-RJAA JA814P A320-214

20171030_rjaa_255ja876a

ANA181 PHNL-RJAA JA876A B787-9

20171030_rjaa_256b18210

20171030_rjaa_257b18210

CAL101 RJAA-RCTP B-18210 B747-409

20171030_rjaa_258hstua

THA676 VTBS-RJAA HS-TUA A380-841

20171030_rjaa_259b18360

CAL104 RCTP-RJAA B-18360 A330-302

20171030_rjaa_260ja09va

VNL954 RJCH-RJAA JA09VA A320-214

20171030_rjaa_261ja21jj

JJP508 RJFF-RJAA JA21JJ A320-232

20171030_rjaa_262n192dn

DAL167 KSEA-RJAA N192DN B767-332ER

20171030_rjaa_263ja01va

VNL804 ROAH-RJAA JA01VA A320-214

20171030_rjaa_264n260z

N260Z RJAA-???? N260Z G-VSP(G550)

20171030_rjaa_265ja847a

ANA3234 RJSS-RJAA JA847A DHC8-402Q

20171030_rjaa_266ja07rj

IBX18 RJNK-RJAA JA07RJ CRJ-702ER

RJAA 300730Z 31016G27KT 9999 FEW030 14/M01 Q1012 WS R34L WS R34R NOSIG

20171030_rjaa_267ja814a

ANA232 EBBR-RJAA JA814A B787-8

20171030_rjaa_268n669us

この日のメイン・・

20171030_rjaa_269n669us

DAL275 KDTW-RJAA N669US B747-451

20171030_rjaa_270n669us

デルタのジャンボ最後の着陸、見送りはできません。

20171030_rjaa_271ss

お日様もデルタを見たかったのね。なんとか日の入り前でした。

20171030_rjaa_272n

UAL803 KIAD-RJAA N796UA B777-222ER

20171030_rjaa_273ja621j

JAL779 PHKO-RJAA JA612J B767-346ER

20171030_rjaa_274ja04va

VNL919 RJAA-RJCC JA04VA A320-214

20171030_rjaa_275b5850

CSC808T RJAA-ZUUU B-5960 A330-343

20171030_rjaa_276dalfe

GEC8384 EDDF-RJAA D-ALFE B777-FBT

20171030_rjaa_277moon

あっと言う間に黄昏

20171030_rjaa_278ja839a

ANA177 KSEA-RJAA JA839A B787-9

20171030_rjaa_279moon

お月様に見送られて、家路です。

|

« ### RJNT log 201711 ### | トップページ | 観天 龍ヶ崎飛行場 2017/10/31 tue »

成田国際空港」カテゴリの記事

コメント

コメントを書く



(ウェブ上には掲載しません)


コメントは記事投稿者が公開するまで表示されません。



トラックバック


この記事へのトラックバック一覧です: 去来2 成田国際空港 2017/10/30 mon:

« ### RJNT log 201711 ### | トップページ | 観天 龍ヶ崎飛行場 2017/10/31 tue »